Stonersville, Pennsylvania
Current Conditions -  °F | °C
As of 4:54 AM on Saturday 22 Nov 2014 (Local Time) from KRDG Reporting Station
Clear Clear  
Wind Chill: 13°   Ceiling: Unl
Heat Index: 20°   Visibility: 10mi
Dew Point: 11°   Wind: 5mph
Humidity: 68%   Direction: 210°SSW
Pressure: 30.49"   Gusts: NA
Location:  40.2313°N, 75.8555°W
Report Text: KRDG 220954Z AUTO 21004KT 10SM CLR M07/M12 A3049 RMK AO2 SLP334 T10671117
Loading
Personal Weather Stations






























Interactive Weather Map New forecast layout! Learn more

10-Day Weather Forecast

Advertisements
Track Severe Weather on mobile